KISM/ISM METAR and TAF weather

Enter ICAO airport designator
Station Type Date Time Source
KISM METAR 2019/10/15 20:56 UTC NOAA

KISM 152056Z 17004KT 10SM FEW055 29/20 A2998


Station Type Date Time Source
KISM Decoded METAR 2019/10/15 20:56 UTC NOAA

Orlando, Kissimmee Municipal Airport, FL, United States (KISM) 28-17-23N 081-26-14W
Oct 15, 2019 - 04:56 PM EDT / 2019.10.15 2056 UTC
Wind: from the S (170 degrees) at 5 MPH (4 KT):0
Visibility: 10 mile(s):0
Sky conditions: mostly clear
Temperature: 84 F (29 C)
Dew Point: 68 F (20 C)
Relative Humidity: 58%
Pressure (altimeter): 29.98 in. Hg (1015 hPa)
ob: KISM 152056Z 17004KT 10SM FEW055 29/20 A2998
cycle: 21

Station Type Date Time Source
KISM TAF 2019/10/15 18:33 UTC NOAA

TAF KISM 151731Z 1518/1618 13008KT P6SM SCT040 SCT150
FM160000 15004KT P6SM BKN150 BKN250
FM161400 23011KT P6SM VCSH SCT030 BKN250

Example: see airport list